createdAt,value
2022-09-10T00:03:41.938Z,15.6
2022-09-10T00:17:41.965Z,15.5
2022-09-10T00:31:42.050Z,15.7
2022-09-10T00:45:41.984Z,15.6
2022-09-10T00:59:41.974Z,15.8
2022-09-10T01:13:41.976Z,16.1
2022-09-10T01:27:41.963Z,16.1
2022-09-10T01:41:41.972Z,16.0
2022-09-10T01:55:42.061Z,16.0
2022-09-10T02:09:42.023Z,16.0
2022-09-10T02:23:42.043Z,15.9
2022-09-10T02:37:42.027Z,15.8
2022-09-10T02:51:42.017Z,16.2
2022-09-10T03:05:42.036Z,16.1
2022-09-10T03:19:42.226Z,15.9
2022-09-10T03:33:42.246Z,15.7
2022-09-10T03:47:42.233Z,15.5
2022-09-10T04:01:42.213Z,15.0
2022-09-10T04:15:42.252Z,14.7
2022-09-10T04:29:42.226Z,14.6
2022-09-10T04:44:42.322Z,14.4
2022-09-10T04:59:42.298Z,14.4
2022-09-10T05:14:42.313Z,14.7
2022-09-10T05:29:42.337Z,14.4
2022-09-10T05:44:42.347Z,14.5
2022-09-10T05:59:42.364Z,14.7
2022-09-10T06:14:42.370Z,14.8
2022-09-10T06:29:42.388Z,15.3
2022-09-10T06:44:42.383Z,16.1
2022-09-10T06:59:42.412Z,18.7
2022-09-10T07:14:42.387Z,21.9
2022-09-10T07:29:42.403Z,24.6
2022-09-10T07:44:42.416Z,25.3
2022-09-10T07:59:42.436Z,27.1
2022-09-10T08:14:42.653Z,27.7
2022-09-10T08:29:42.564Z,27.3
2022-09-10T08:44:42.589Z,27.6
2022-09-10T08:59:42.545Z,28.1
2022-09-10T09:14:42.551Z,29.1
2022-09-10T09:29:42.580Z,27.9
2022-09-10T09:44:42.551Z,28.3
2022-09-10T09:59:42.593Z,28.1
2022-09-10T10:14:42.597Z,27.8
2022-09-10T10:29:42.606Z,28.2
2022-09-10T10:44:42.623Z,28.1
2022-09-10T10:59:42.592Z,27.2
2022-09-10T11:14:43.097Z,28.6
2022-09-10T11:29:43.234Z,29.3
2022-09-10T11:44:43.244Z,28.8
2022-09-10T11:59:43.256Z,29.1
2022-09-10T12:14:43.277Z,28.9
2022-09-10T12:29:43.245Z,28.9
2022-09-10T12:44:43.276Z,30.2
2022-09-10T12:59:43.260Z,29.7
2022-09-10T13:14:43.266Z,30.1
2022-09-10T13:29:43.397Z,31.2
2022-09-10T13:45:43.403Z,30.5
2022-09-10T14:00:43.419Z,29.3
2022-09-10T14:15:43.461Z,28.0
2022-09-10T14:31:43.457Z,27.2
2022-09-10T14:47:43.440Z,30.5
2022-09-10T15:02:43.543Z,31.2
2022-09-10T15:18:43.591Z,31.9
2022-09-10T15:33:43.633Z,30.4
2022-09-10T15:48:43.627Z,30.4
2022-09-10T16:03:43.645Z,25.0
2022-09-10T16:18:43.637Z,21.6
2022-09-10T16:33:43.674Z,21.5
2022-09-10T16:48:43.687Z,21.7
2022-09-10T17:03:43.682Z,21.7
2022-09-10T17:18:43.706Z,20.9
2022-09-10T17:33:43.744Z,20.7
2022-09-10T17:48:43.734Z,20.5
2022-09-10T18:03:43.743Z,20.5
2022-09-10T18:18:43.773Z,20.4
2022-09-10T18:32:43.776Z,20.4
2022-09-10T18:46:43.806Z,20.1
2022-09-10T19:01:43.998Z,19.5
2022-09-10T19:15:43.837Z,19.0
2022-09-10T19:29:43.804Z,18.9
2022-09-10T19:43:43.803Z,18.7
2022-09-10T19:57:43.806Z,18.8
2022-09-10T20:11:43.815Z,18.4
2022-09-10T20:25:43.825Z,18.5
2022-09-10T20:39:43.883Z,19.0
2022-09-10T20:53:43.807Z,18.7
2022-09-10T21:07:43.923Z,18.5
2022-09-10T21:21:43.830Z,18.2
2022-09-10T21:35:43.845Z,18.1
2022-09-10T21:49:43.881Z,18.5
2022-09-10T22:03:43.844Z,18.6
2022-09-10T22:17:43.846Z,18.7
2022-09-10T22:31:43.846Z,17.6
2022-09-10T22:45:43.843Z,17.5
2022-09-10T22:59:43.873Z,17.5
2022-09-10T23:13:43.838Z,17.5
2022-09-10T23:27:43.902Z,16.8
2022-09-10T23:41:43.844Z,16.3
2022-09-10T23:55:43.909Z,16.0
